Time;durP1;ratioP1;P1;durP2;ratioP2;P2;SDS_P1;SDS_P2;PMS_P1;PMS_P2;Temp;Humidity;BMP_temperature;BMP_pressure;BME280_temperature;BME280_humidity;BME280_pressure;Samples;Min_cycle;Max_cycle;Signal;HPM_P1;HPM_P2
2023/07/01 00:01:42;;;;;;;16.90;8.93;;;21.60;99.90;;;;;;6133434;23;20255;-78
2023/07/01 00:04:15;;;;;;;12.27;7.97;;;21.60;99.90;;;;;;6129650;23;20017;-78
2023/07/01 00:07:24;;;;;;;9.85;6.90;;;21.50;99.90;;;;;;6180043;23;20025;-78
2023/07/01 00:09:54;;;;;;;13.57;7.47;;;21.30;99.90;;;;;;6161126;23;20048;-79
2023/07/01 00:15:49;;;;;;;13.55;8.10;;;21.20;99.90;;;;;;6134235;23;20108;-78
2023/07/01 00:24:56;;;;;;;14.85;7.75;;;21.70;99.90;;;;;;6218884;22;20088;-79
2023/07/01 00:27:26;;;;;;;14.53;7.40;;;21.70;99.90;;;;;;6195265;23;20446;-79
2023/07/01 00:29:53;;;;;;;11.98;7.18;;;21.60;99.90;;;;;;6195329;23;20059;-79
2023/07/01 00:32:53;;;;;;;12.50;8.37;;;21.30;99.90;;;;;;6218521;22;20079;-81
2023/07/01 00:36:50;;;;;;;154.68;94.57;;;21.40;99.90;;;;;;6201009;23;20464;-79
2023/07/01 00:39:18;;;;;;;29.90;20.95;;;21.70;99.90;;;;;;6223016;23;20023;-81
2023/07/01 00:41:54;;;;;;;17.63;12.25;;;21.60;99.90;;;;;;6221890;23;20039;-79
2023/07/01 00:47:19;;;;;;;18.05;12.00;;;21.30;99.90;;;;;;6219329;23;20026;-77
2023/07/01 00:49:56;;;;;;;16.90;11.15;;;21.40;99.90;;;;;;6227451;22;20016;-77
2023/07/01 00:52:59;;;;;;;15.43;9.50;;;21.50;99.90;;;;;;6246839;23;20091;-79
2023/07/01 00:55:26;;;;;;;16.42;9.00;;;21.10;99.90;;;;;;6249112;23;20044;-79
2023/07/01 00:58:33;;;;;;;12.98;8.32;;;20.80;99.90;;;;;;6228728;22;20026;-77
2023/07/01 01:01:21;;;;;;;14.45;9.60;;;20.90;99.90;;;;;;6251741;23;20012;-77
2023/07/01 01:05:12;;;;;;;14.43;8.77;;;20.80;99.90;;;;;;6249795;23;20031;-77
2023/07/01 01:21:36;;;;;;;14.20;8.43;;;21.00;99.90;;;;;;6208574;22;20346;-78
2023/07/01 01:24:08;;;;;;;13.70;9.10;;;20.80;99.90;;;;;;6250830;23;20008;-79
2023/07/01 01:33:26;;;;;;;17.70;9.48;;;20.60;99.90;;;;;;6230122;22;20024;-79
2023/07/01 01:36:03;;;;;;;13.45;8.52;;;20.70;99.90;;;;;;6251022;23;20012;-78
2023/07/01 01:38:34;;;;;;;18.83;8.85;;;20.80;99.90;;;;;;6251386;22;20024;-80
2023/07/01 01:41:17;;;;;;;13.32;8.45;;;20.80;99.90;;;;;;6248263;23;20015;-78
2023/07/01 01:44:33;;;;;;;12.80;8.85;;;20.80;99.90;;;;;;6251430;22;20446;-79
2023/07/01 01:47:12;;;;;;;12.25;8.38;;;20.70;99.90;;;;;;6248258;23;20012;-78
2023/07/01 01:53:47;;;;;;;14.30;8.10;;;20.60;99.90;;;;;;6184039;23;20091;-78
2023/07/01 02:00:24;;;;;;;11.95;8.07;;;20.60;99.90;;;;;;6251363;23;20511;-81
2023/07/01 02:02:53;;;;;;;10.20;7.28;;;20.70;99.90;;;;;;6250790;23;20024;-79
2023/07/01 02:05:33;;;;;;;10.45;7.55;;;20.20;99.90;;;;;;6248350;23;20009;-81
2023/07/01 02:08:04;;;;;;;10.65;7.20;;;19.90;99.90;;;;;;6224229;23;20023;-81
2023/07/01 02:17:06;;;;;;;12.05;7.05;;;20.50;99.90;;;;;;6182380;22;21294;-79
2023/07/01 02:20:03;;;;;;;10.07;6.47;;;20.40;99.90;;;;;;6225769;23;20071;-80
2023/07/01 02:38:08;;;;;;;14.60;7.75;;;20.30;99.90;;;;;;6104510;23;20049;-78
2023/07/01 02:40:37;;;;;;;9.65;6.82;;;20.30;99.90;;;;;;6083056;23;20081;-78
2023/07/01 02:46:01;;;;;;;9.73;6.93;;;20.50;99.90;;;;;;6209372;22;20028;-78
2023/07/01 02:48:29;;;;;;;13.20;7.68;;;20.50;99.90;;;;;;6168930;23;20025;-79
2023/07/01 02:50:57;;;;;;;13.63;6.60;;;20.30;99.90;;;;;;6192710;23;20104;-78
2023/07/01 02:53:24;;;;;;;11.57;7.50;;;20.20;99.90;;;;;;6194006;23;20020;-77
2023/07/01 02:55:52;;;;;;;10.98;7.47;;;19.80;99.90;;;;;;6193735;23;20028;-79
2023/07/01 02:58:39;;;;;;;14.18;9.52;;;19.70;99.90;;;;;;6193144;23;20017;-78
2023/07/01 03:01:46;;;;;;;19.48;14.93;;;19.70;99.90;;;;;;6202609;23;20561;-78
2023/07/01 03:04:14;;;;;;;31.42;19.33;;;19.80;99.90;;;;;;6196249;23;20033;-79
2023/07/01 03:06:45;;;;;;;28.30;19.92;;;20.00;99.90;;;;;;6197409;23;20016;-78
2023/07/01 03:09:14;;;;;;;28.67;21.63;;;20.10;99.90;;;;;;6170099;23;20021;-78
2023/07/01 03:11:52;;;;;;;31.17;24.33;;;20.10;99.90;;;;;;6195547;23;20459;-81
2023/07/01 03:15:08;;;;;;;41.58;29.70;;;20.10;99.90;;;;;;6179528;23;20312;-80
2023/07/01 03:17:36;;;;;;;44.60;32.15;;;19.80;99.90;;;;;;6195271;23;20024;-78
2023/07/01 03:20:22;;;;;;;44.20;34.30;;;20.10;99.90;;;;;;6194572;23;20012;-79
2023/07/01 03:23:31;;;;;;;63.30;45.78;;;20.20;99.90;;;;;;6151989;23;20020;-79
2023/07/01 03:26:00;;;;;;;61.08;47.83;;;19.80;99.90;;;;;;6197005;23;20331;-79
2023/07/01 03:28:27;;;;;;;63.22;44.97;;;19.80;99.90;;;;;;6196513;23;20020;-79
2023/07/01 03:35:44;;;;;;;52.97;39.00;;;19.70;99.90;;;;;;6129477;23;20016;-79
2023/07/01 03:38:27;;;;;;;50.95;37.05;;;19.60;99.90;;;;;;6093663;23;20057;-78
2023/07/01 03:40:55;;;;;;;50.33;35.38;;;19.30;99.90;;;;;;6129799;23;20047;-79
2023/07/01 03:46:07;;;;;;;26.33;20.85;;;19.60;99.90;;;;;;6244206;22;20337;-79
2023/07/01 03:48:35;;;;;;;28.88;17.30;;;19.40;99.90;;;;;;6255981;22;20054;-79
2023/07/01 03:51:02;;;;;;;21.20;13.82;;;19.70;99.90;;;;;;6255690;22;20012;-79
2023/07/01 03:53:30;;;;;;;15.15;10.70;;;19.90;99.90;;;;;;6283560;22;20019;-79
2023/07/01 03:55:58;;;;;;;17.27;11.18;;;20.00;99.90;;;;;;6283969;22;20388;-80
2023/07/01 03:58:26;;;;;;;16.45;10.55;;;19.50;99.90;;;;;;6255510;22;20023;-79
2023/07/01 04:00:53;;;;;;;12.30;9.60;;;19.40;99.90;;;;;;6255998;22;20012;-79
2023/07/01 04:03:25;;;;;;;11.77;8.63;;;19.50;99.90;;;;;;6255848;22;20020;-80
2023/07/01 04:05:53;;;;;;;14.05;8.43;;;19.80;99.90;;;;;;6255166;22;20015;-78
2023/07/01 04:08:20;;;;;;;11.68;7.18;;;19.80;99.90;;;;;;6280943;22;20108;-78
2023/07/01 04:11:08;;;;;;;;;;;;;;;;;;;;;
2023/07/01 04:22:20;;;;;;;10.25;6.95;;;19.80;99.90;;;;;;6134622;23;20041;-78
2023/07/01 04:28:02;;;;;;;11.32;7.03;;;19.90;99.90;;;;;;6204056;23;20016;-80
2023/07/01 04:30:34;;;;;;;13.25;7.55;;;20.30;99.90;;;;;;6219824;23;20074;-79
2023/07/01 04:37:02;;;;;;;13.43;8.52;;;20.50;99.90;;;;;;6186279;22;20016;-78
2023/07/01 04:39:44;;;;;;;17.65;9.52;;;20.50;99.90;;;;;;6229678;23;20004;-78
2023/07/01 04:42:26;;;;;;;14.02;9.25;;;20.70;99.90;;;;;;6254318;22;20024;-79
2023/07/01 04:48:15;;;;;;;15.43;10.32;;;20.70;99.90;;;;;;6230554;22;20022;-80
2023/07/01 04:54:47;;;;;;;14.85;9.63;;;20.80;99.90;;;;;;6245494;22;20044;-79
2023/07/01 05:04:44;;;;;;;14.95;10.30;;;21.20;99.90;;;;;;6225320;22;20020;-80
2023/07/01 05:07:25;;;;;;;14.82;9.90;;;21.00;99.90;;;;;;6251727;23;20024;-81
2023/07/01 05:09:57;;;;;;;16.52;10.32;;;21.00;99.90;;;;;;6252679;23;20027;-79
2023/07/01 05:16:32;;;;;;;15.40;10.15;;;20.80;99.90;;;;;;6251559;22;20103;-79
2023/07/01 05:19:12;;;;;;;15.40;9.10;;;20.80;99.90;;;;;;6251329;23;20044;-78
2023/07/01 05:24:59;;;;;;;12.10;7.75;;;21.20;99.90;;;;;;6224063;22;20020;-79
2023/07/01 05:28:38;;;;;;;12.43;7.25;;;21.40;99.90;;;;;;6094315;23;20022;-80
2023/07/01 05:31:05;;;;;;;13.10;7.97;;;21.60;99.90;;;;;;6101373;23;20025;-79
2023/07/01 05:45:50;;;;;;;11.68;6.45;;;21.60;99.90;;;;;;6253306;23;20008;-80
2023/07/01 05:48:17;;;;;;;10.57;7.53;;;21.70;99.90;;;;;;6251205;23;20016;-80
2023/07/01 06:00:53;;;;;;;10.77;6.40;;;21.70;99.90;;;;;;6261970;22;20074;-80
2023/07/01 06:06:28;;;;;;;13.15;6.97;;;21.90;99.90;;;;;;6174460;22;20461;-79
2023/07/01 06:16:13;;;;;;;12.20;7.30;;;22.00;99.90;;;;;;6202319;22;20031;-79
2023/07/01 06:18:59;;;;;;;10.48;7.50;;;22.10;99.90;;;;;;6282402;22;20310;-79
2023/07/01 06:33:39;;;;;;;24.15;16.42;;;21.80;99.90;;;;;;6198738;22;20037;-80
2023/07/01 06:36:12;;;;;;;33.47;20.65;;;22.20;99.90;;;;;;6234856;22;20094;-78
2023/07/01 06:54:04;;;;;;;14.00;7.97;;;23.00;99.90;;;;;;6292780;22;20018;-81
2023/07/01 07:05:57;;;;;;;28.77;19.17;;;22.90;99.90;;;;;;6182857;23;19904;-79
2023/07/01 07:08:32;;;;;;;18.85;13.20;;;22.90;99.90;;;;;;6170963;23;20398;-79
2023/07/01 07:15:09;;;;;;;15.55;10.95;;;23.10;99.90;;;;;;6208033;23;20035;31
2023/07/01 07:26:48;;;;;;;13.65;8.38;;;23.20;99.90;;;;;;6051462;23;20003;-79
2023/07/01 07:29:33;;;;;;;10.68;7.47;;;23.30;99.90;;;;;;6045784;23;20020;-79
2023/07/01 07:50:10;;;;;;;10.15;6.78;;;23.40;99.90;;;;;;6166169;23;20092;-78
2023/07/01 07:53:28;;;;;;;36.17;26.17;;;23.50;99.90;;;;;;6257068;22;20019;-78
2023/07/01 07:56:59;;;;;;;33.17;21.65;;;23.50;99.90;;;;;;6255999;22;20291;-80
2023/07/01 08:08:47;;;;;;;61.00;46.92;;;23.80;99.90;;;;;;6283589;22;20011;-79
2023/07/01 08:25:02;;;;;;;12.25;7.68;;;24.20;99.90;;;;;;6286397;22;20018;-78
2023/07/01 08:45:51;;;;;;;;;;;24.90;99.90;;;;;;6284351;22;20065;-78
2023/07/01 08:48:22;;;;;;;9.85;6.75;;;24.60;99.90;;;;;;6231218;22;19985;-79
2023/07/01 08:51:28;;;;;;;9.60;6.80;;;24.70;99.90;;;;;;6202127;23;20028;-81
2023/07/01 08:54:26;;;;;;;42.20;28.77;;;24.70;99.90;;;;;;6231370;23;20449;-79
2023/07/01 09:01:01;;;;;;;12.25;9.63;;;24.90;99.90;;;;;;6241946;22;20051;-77
2023/07/01 09:11:37;;;;;;;24.85;17.67;;;25.20;99.90;;;;;;6283747;22;20050;-77
2023/07/01 09:14:05;;;;;;;14.35;9.20;;;25.30;99.90;;;;;;6209432;22;20016;-77
2023/07/01 09:20:41;;;;;;;26.13;18.83;;;25.60;99.90;;;;;;6215970;23;20073;-78
2023/07/01 09:30:40;;;;;;;114.45;79.97;;;25.60;97.90;;;;;;6209208;22;20026;-78
2023/07/01 09:36:10;;;;;;;92.50;54.97;;;26.20;96.30;;;;;;6239487;22;20019;-80
2023/07/01 09:41:30;;;;;;;11.52;6.70;;;26.50;96.10;;;;;;6196297;23;20343;-80
2023/07/01 09:44:19;;;;;;;9.30;5.05;;;26.60;94.50;;;;;;6123284;23;20021;-79
2023/07/01 09:50:26;;;;;;;6.20;4.40;;;26.90;90.80;;;;;;6261065;22;20340;-78
2023/07/01 09:53:01;;;;;;;10.02;6.22;;;26.90;91.30;;;;;;6226431;22;20068;-85
2023/07/01 09:55:44;;;;;;;26.25;19.25;;;26.80;92.20;;;;;;6321680;22;20025;-79
2023/07/01 09:58:18;;;;;;;21.30;16.15;;;26.80;93.20;;;;;;6270766;22;20023;-80
2023/07/01 10:01:40;;;;;;;11.65;8.38;;;27.10;92.90;;;;;;6297219;22;20015;-79
2023/07/01 10:08:17;;;;;;;7.65;4.93;;;27.30;93.60;;;;;;6269209;22;20045;-83
2023/07/01 10:11:21;;;;;;;15.50;6.15;;;27.20;93.50;;;;;;6260878;22;20008;-80
2023/07/01 10:13:57;;;;;;;12.07;6.72;;;27.30;93.80;;;;;;6266177;22;20015;-83
2023/07/01 10:16:47;;;;;;;9.15;6.13;;;27.40;93.50;;;;;;6285175;22;20046;-75
2023/07/01 10:19:46;;;;;;;12.48;5.97;;;27.50;93.40;;;;;;6291956;22;20050;-82
2023/07/01 10:40:21;;;;;;;8.82;5.65;;;27.80;93.30;;;;;;6265540;22;20023;-81
2023/07/01 10:48:18;;;;;;;8.13;5.38;;;28.00;91.60;;;;;;6289466;22;20026;-82
2023/07/01 10:51:03;;;;;;;8.15;4.93;;;28.00;92.00;;;;;;6089962;23;20037;-82
2023/07/01 10:54:05;;;;;;;8.05;5.47;;;27.90;91.00;;;;;;6241140;22;20023;-83
2023/07/01 10:57:51;;;;;;;;;;;;;;;;;;;;;
2023/07/01 11:00:44;;;;;;;7.05;5.40;;;28.40;90.30;;;;;;6232112;22;20252;-80
2023/07/01 11:07:41;;;;;;;11.15;4.85;;;28.20;90.40;;;;;;6116262;23;20026;-82
2023/07/01 11:10:25;;;;;;;7.97;4.60;;;28.30;90.40;;;;;;6111312;22;20112;-78
2023/07/01 11:13:07;;;;;;;10.60;5.43;;;28.40;90.20;;;;;;6256066;22;20041;-77
2023/07/01 11:15:37;;;;;;;11.23;5.20;;;28.30;90.20;;;;;;6287071;22;20020;-79
2023/07/01 11:18:18;;;;;;;6.88;4.70;;;28.30;89.10;;;;;;6254393;22;20393;-75
2023/07/01 11:20:54;;;;;;;9.48;5.30;;;28.50;87.10;;;;;;6258871;22;20142;-76
2023/07/01 11:23:50;;;;;;;9.60;4.90;;;28.70;86.80;;;;;;6283332;22;20035;-78
2023/07/01 11:30:32;;;;;;;8.32;4.75;;;28.60;86.20;;;;;;6290644;22;20019;-81
2023/07/01 11:33:18;;;;;;;9.25;5.45;;;28.80;85.70;;;;;;6286968;22;20016;-77
2023/07/01 11:35:52;;;;;;;;;;;29.20;86.40;;;;;;6233373;22;20024;-77
2023/07/01 11:39:13;;;;;;;5.90;4.15;;;29.40;83.20;;;;;;6285671;22;19915;-80
2023/07/01 11:42:15;;;;;;;8.55;5.38;;;29.20;84.70;;;;;;6148433;23;20064;-77
2023/07/01 11:44:44;;;;;;;7.75;4.95;;;29.00;84.90;;;;;;6218215;22;20341;-77
2023/07/01 11:47:14;;;;;;;6.95;4.75;;;29.10;84.80;;;;;;6237198;22;20081;-79
2023/07/01 11:53:27;;;;;;;7.95;4.50;;;29.30;82.60;;;;;;6169210;23;19980;-78
2023/07/01 12:00:14;;;;;;;7.03;4.32;;;29.00;83.70;;;;;;6168943;23;20029;-80
2023/07/01 12:03:09;;;;;;;10.52;4.80;;;29.40;80.30;;;;;;6223462;22;20469;-80
2023/07/01 12:14:30;;;;;;;8.23;4.50;;;29.40;77.70;;;;;;6292703;22;20042;-81
2023/07/01 12:24:26;;;;;;;14.82;8.50;;;29.90;74.30;;;;;;6274688;22;20089;-80
2023/07/01 12:34:29;;;;;;;7.03;3.80;;;29.80;73.00;;;;;;6254326;22;20016;-78
2023/07/01 12:37:57;;;;;;;7.13;3.22;;;29.50;72.80;;;;;;6246291;22;20077;-76
2023/07/01 12:40:46;;;;;;;5.38;3.47;;;29.40;72.80;;;;;;6210948;23;20043;-80
2023/07/01 12:48:41;;;;;;;6.95;3.83;;;29.50;71.20;;;;;;6267030;23;20052;-79
2023/07/01 12:55:17;;;;;;;7.57;3.90;;;29.70;73.70;;;;;;6260996;23;20022;-80
2023/07/01 12:58:32;;;;;;;5.78;3.40;;;29.20;74.70;;;;;;6262927;22;20068;-82
2023/07/01 13:01:24;;;;;;;6.57;3.78;;;29.00;74.40;;;;;;6260252;23;20020;-86
2023/07/01 13:17:09;;;;;;;5.63;3.58;;;28.20;79.00;;;;;;6177469;23;20473;-82
2023/07/01 13:19:52;;;;;;;6.18;3.70;;;28.10;79.20;;;;;;6195947;23;20105;-80
2023/07/01 13:22:24;;;;;;;7.93;4.53;;;28.00;79.50;;;;;;6205609;23;20020;-82
2023/07/01 13:24:58;;;;;;;23.50;17.80;;;27.90;80.40;;;;;;6256152;23;20025;-81
2023/07/01 13:28:03;;;;;;;15.80;11.13;;;27.80;80.10;;;;;;6255532;22;20095;-85
2023/07/01 13:32:14;;;;;;;77.45;50.83;;;27.80;81.00;;;;;;6307820;22;20053;-85
2023/07/01 13:34:46;;;;;;;23.48;16.30;;;27.70;81.20;;;;;;6293509;22;20019;-79
2023/07/01 13:37:21;;;;;;;9.75;6.32;;;27.60;83.30;;;;;;6296174;22;20027;-77
2023/07/01 13:40:09;;;;;;;7.63;3.90;;;27.60;82.20;;;;;;6291939;22;20016;-85
2023/07/01 13:42:56;;;;;;;57.17;6.55;;;27.90;80.50;;;;;;6262383;22;20092;-73
2023/07/01 13:45:26;;;;;;;31.73;12.30;;;24.20;91.80;;;;;;6305613;22;20027;-73
2023/07/01 13:47:54;;;;;;;;;;;22.90;96.60;;;;;;6305591;22;20017;-70
2023/07/01 13:50:24;;;;;;;30.38;13.52;;;21.90;99.90;;;;;;6305286;22;19993;-77
2023/07/01 13:53:00;;;;;;;8.27;3.53;;;21.20;99.90;;;;;;6253927;22;20019;-74
2023/07/01 13:55:36;;;;;;;7.32;3.13;;;19.90;99.90;;;;;;6278576;22;20018;-74
2023/07/01 13:58:11;;;;;;;7.85;4.15;;;20.00;99.90;;;;;;6251719;22;20387;-76
2023/07/01 14:00:53;;;;;;;10.23;4.30;;;19.70;99.90;;;;;;6256726;22;20023;-76
2023/07/01 14:03:48;;;;;;;12.45;4.80;;;20.20;99.90;;;;;;6215660;23;20016;-75
2023/07/01 14:06:24;;;;;;;9.40;4.57;;;20.00;99.90;;;;;;6187787;23;20067;-75
2023/07/01 14:08:59;;;;;;;14.30;5.43;;;20.60;99.90;;;;;;6212794;23;20021;-75
2023/07/01 14:11:34;;;;;;;12.25;5.15;;;20.90;99.90;;;;;;6213097;23;20017;-74
2023/07/01 14:14:05;;;;;;;17.27;5.32;;;20.90;99.90;;;;;;6212797;23;20066;-74
2023/07/01 14:16:36;;;;;;;13.15;5.60;;;20.90;99.90;;;;;;6236466;23;20032;-74
2023/07/01 14:19:04;;;;;;;13.27;4.68;;;21.10;99.90;;;;;;6187025;23;20358;-74
2023/07/01 14:21:34;;;;;;;12.80;4.80;;;21.60;99.90;;;;;;6211973;23;20316;-74
2023/07/01 14:24:18;;;;;;;8.20;4.68;;;21.60;99.90;;;;;;6186655;23;20020;-75
2023/07/01 14:26:50;;;;;;;8.48;4.07;;;21.70;99.90;;;;;;6211216;23;20021;-75
2023/07/01 14:29:18;;;;;;;8.75;5.00;;;21.70;99.90;;;;;;6186372;23;20032;-74
2023/07/01 14:31:54;;;;;;;8.30;4.07;;;21.70;99.90;;;;;;6212942;23;20008;-74
2023/07/01 14:34:31;;;;;;;11.27;4.35;;;21.80;99.90;;;;;;6211447;23;20024;-75
2023/07/01 14:36:59;;;;;;;10.70;4.43;;;22.00;99.90;;;;;;6187681;23;20016;-76
2023/07/01 14:39:48;;;;;;;11.85;4.88;;;21.90;99.90;;;;;;6187178;23;20366;-75
2023/07/01 14:42:25;;;;;;;8.70;4.22;;;22.20;99.90;;;;;;6212529;23;20032;-75
2023/07/01 14:44:53;;;;;;;9.98;4.85;;;22.30;99.90;;;;;;6186846;23;20028;-75
2023/07/01 14:47:21;;;;;;;9.48;4.45;;;22.70;99.90;;;;;;6211259;23;20020;-75
2023/07/01 14:49:49;;;;;;;10.05;4.20;;;22.80;99.90;;;;;;6212916;23;20017;-75
2023/07/01 14:52:23;;;;;;;8.75;3.75;;;23.80;99.90;;;;;;6210918;23;20060;-74
2023/07/01 14:54:52;;;;;;;8.10;3.88;;;24.30;99.90;;;;;;6213131;23;20079;-75
2023/07/01 14:57:30;;;;;;;9.18;3.50;;;26.20;99.90;;;;;;6211416;23;20028;-74
2023/07/01 15:00:00;;;;;;;7.75;3.67;;;27.00;99.90;;;;;;6188899;23;20020;-75
2023/07/01 15:02:28;;;;;;;7.25;3.05;;;28.80;99.90;;;;;;6203985;23;20021;-75
2023/07/01 15:04:56;;;;;;;9.02;3.88;;;29.10;99.60;;;;;;6158968;23;20447;-74
2023/07/01 15:07:26;;;;;;;6.75;3.28;;;28.50;99.90;;;;;;6185565;23;20022;-77
2023/07/01 15:10:42;;;;;;;8.80;3.55;;;30.00;97.60;;;;;;6232144;22;20024;-77
2023/07/01 15:13:17;;;;;;;9.88;3.35;;;31.20;94.20;;;;;;6214997;23;20111;-75
2023/07/01 15:15:54;;;;;;;8.40;3.78;;;32.40;91.40;;;;;;6219258;23;20438;-75
2023/07/01 15:18:48;;;;;;;6.68;2.88;;;31.70;90.70;;;;;;6223029;23;20028;-75
2023/07/01 15:21:27;;;;;;;6.78;3.80;;;28.30;94.90;;;;;;6216745;22;20020;-76
2023/07/01 15:24:33;;;;;;;17.88;9.80;;;27.00;98.80;;;;;;6226325;22;20098;-76
2023/07/01 15:28:02;;;;;;;41.42;29.80;;;26.30;99.90;;;;;;6225084;22;20127;-76
2023/07/01 15:35:14;;;;;;;34.92;25.67;;;25.60;99.90;;;;;;6266315;22;20042;-75
2023/07/01 15:38:17;;;;;;;42.63;28.52;;;25.30;99.90;;;;;;6207519;22;20046;-76
2023/07/01 15:40:46;;;;;;;32.13;22.40;;;27.90;99.90;;;;;;6248314;22;20027;-77
2023/07/01 15:43:16;;;;;;;9.43;4.32;;;29.70;98.20;;;;;;6275758;22;20041;-75
2023/07/01 15:46:01;;;;;;;7.35;3.42;;;30.90;93.50;;;;;;6252641;22;20116;-78
2023/07/01 15:49:37;;;;;;;;;;;;;;;;;;;;;
2023/07/01 15:52:28;;;;;;;77.28;56.08;;;30.10;92.20;;;;;;6274506;22;20019;-77
2023/07/01 15:55:14;;;;;;;11.68;7.95;;;30.90;91.80;;;;;;6275128;22;20022;-74
2023/07/01 15:59:11;;;;;;;7.72;4.70;;;31.00;91.70;;;;;;6248023;22;20016;-77
2023/07/01 16:02:08;;;;;;;;;;;;;;;;;;;;;
2023/07/01 16:05:18;;;;;;;132.80;112.25;;;31.20;89.30;;;;;;6245616;22;20021;-77
2023/07/01 16:08:43;;;;;;;13.18;8.55;;;31.80;87.70;;;;;;6255227;22;20045;-77
2023/07/01 16:12:13;;;;;;;8.93;5.03;;;31.30;88.30;;;;;;6212867;22;20018;-77
2023/07/01 16:18:28;;;;;;;7.82;4.57;;;28.20;91.30;;;;;;6153916;23;20632;-75
2023/07/01 16:21:08;;;;;;;9.40;4.32;;;26.40;94.10;;;;;;6153247;23;20045;-77
2023/07/01 16:23:55;;;;;;;16.48;5.55;;;25.50;96.60;;;;;;6153233;23;20068;-76
2023/07/01 16:26:39;;;;;;;10.30;5.90;;;25.10;99.50;;;;;;6158805;23;20020;-76
2023/07/01 16:29:26;;;;;;;12.82;5.80;;;25.20;99.90;;;;;;6130119;23;20021;-75
2023/07/01 16:31:57;;;;;;;21.05;14.93;;;27.10;98.40;;;;;;6134732;23;20026;-78
2023/07/01 16:34:29;;;;;;;11.32;5.88;;;29.70;92.20;;;;;;6158900;23;20048;-77
2023/07/01 16:36:58;;;;;;;9.48;5.70;;;29.90;88.50;;;;;;6134851;23;20339;-77
2023/07/01 16:40:45;;;;;;;;;;;;;;;;;;;;;
2023/07/01 16:43:42;;;;;;;10.93;4.78;;;30.60;85.60;;;;;;6183845;23;20019;-76
2023/07/01 16:46:10;;;;;;;10.55;5.22;;;29.80;88.50;;;;;;6183265;23;20088;-76
2023/07/01 16:48:50;;;;;;;10.70;4.70;;;28.80;90.10;;;;;;6158566;23;20016;-77
2023/07/01 16:51:21;;;;;;;10.73;5.32;;;28.40;90.80;;;;;;6133785;23;20076;-75
2023/07/01 16:54:11;;;;;;;9.13;4.65;;;27.30;91.30;;;;;;6135912;23;20081;-77
2023/07/01 16:56:53;;;;;;;10.15;4.70;;;26.80;93.30;;;;;;6183775;23;20028;-78
2023/07/01 16:59:47;;;;;;;11.63;4.90;;;25.70;97.00;;;;;;6133275;23;20025;-75
2023/07/01 17:02:30;;;;;;;10.75;4.97;;;25.00;99.20;;;;;;6157750;23;20196;-78
2023/07/01 17:05:01;;;;;;;10.75;5.55;;;23.80;99.90;;;;;;6157303;23;20017;-76
2023/07/01 17:07:29;;;;;;;11.77;5.32;;;23.30;99.90;;;;;;6184534;23;20394;-76
2023/07/01 17:09:59;;;;;;;10.35;5.25;;;23.20;99.90;;;;;;6158212;23;20017;-77
2023/07/01 17:12:31;;;;;;;9.02;4.65;;;23.10;99.90;;;;;;6184253;23;20073;-77
2023/07/01 17:15:00;;;;;;;14.25;5.78;;;22.90;99.90;;;;;;6159703;23;20025;-77
2023/07/01 17:17:33;;;;;;;9.98;5.25;;;22.80;99.90;;;;;;6159213;23;20105;-78
2023/07/01 17:20:09;;;;;;;14.02;6.25;;;22.70;99.90;;;;;;6136529;23;20044;-77
2023/07/01 17:22:40;;;;;;;13.73;5.63;;;22.50;99.90;;;;;;6158816;23;20021;-76
2023/07/01 17:25:13;;;;;;;14.25;5.10;;;22.50;99.90;;;;;;6159720;23;20333;-77
2023/07/01 17:27:40;;;;;;;12.25;6.30;;;22.30;99.90;;;;;;6182953;23;20020;-76
2023/07/01 17:30:08;;;;;;;10.40;5.13;;;22.30;99.90;;;;;;6157714;23;20031;-75
2023/07/01 17:32:35;;;;;;;11.05;5.25;;;22.30;99.90;;;;;;6157642;23;20041;-74
2023/07/01 17:35:18;;;;;;;10.60;5.18;;;22.10;99.90;;;;;;6133629;23;20094;-74
2023/07/01 17:37:47;;;;;;;14.60;6.80;;;22.10;99.90;;;;;;6132931;23;20020;-75
2023/07/01 17:40:19;;;;;;;10.95;6.35;;;22.10;99.90;;;;;;6131630;23;20021;-76
2023/07/01 17:42:53;;;;;;;9.85;5.53;;;22.20;99.90;;;;;;6130994;23;20108;-75
2023/07/01 17:45:21;;;;;;;10.85;5.03;;;22.10;99.90;;;;;;6135748;23;20054;-77
2023/07/01 17:48:34;;;;;;;22.08;13.45;;;22.10;99.90;;;;;;6152864;23;20028;-76
2023/07/01 17:51:29;;;;;;;58.10;41.92;;;21.90;99.90;;;;;;6093253;23;20028;-75
2023/07/01 17:53:56;;;;;;;12.25;7.95;;;21.90;99.90;;;;;;6182603;23;20021;-75
2023/07/01 17:56:24;;;;;;;9.65;5.38;;;21.90;99.90;;;;;;6183911;23;20335;-77
2023/07/01 17:58:53;;;;;;;12.75;6.07;;;21.90;99.90;;;;;;6133218;23;20021;-77
2023/07/01 18:01:21;;;;;;;11.52;5.32;;;22.00;99.90;;;;;;6184565;23;20091;-81
2023/07/01 18:03:55;;;;;;;18.33;5.88;;;21.80;99.90;;;;;;6167739;23;20017;-78
2023/07/01 18:07:40;;;;;;;;;;;;;;;;;;;;;
2023/07/01 18:10:47;;;;;;;;;;;;;;;;;;;;;
2023/07/01 18:16:25;;;;;;;64.80;40.67;;;22.00;99.90;;;;;;6280500;22;20020;-79
2023/07/01 18:19:02;;;;;;;16.63;10.85;;;22.00;99.90;;;;;;6230512;22;20090;-78
2023/07/01 18:21:31;;;;;;;81.88;51.25;;;21.90;99.90;;;;;;6281844;22;20015;-78
2023/07/01 18:27:55;;;;;;;257.67;166.30;;;21.80;99.90;;;;;;6215805;22;20027;-79
2023/07/01 18:39:54;;;;;;;21.42;16.75;;;21.50;99.90;;;;;;6264474;22;20398;-75
2023/07/01 18:50:03;;;;;;;59.50;39.78;;;21.60;99.90;;;;;;6316816;22;20008;-77
2023/07/01 18:52:31;;;;;;;19.63;11.85;;;21.60;99.90;;;;;;6289957;22;20023;-79
2023/07/01 18:55:00;;;;;;;11.65;6.68;;;21.80;99.90;;;;;;6312467;22;20045;-76
2023/07/01 18:57:30;;;;;;;10.70;5.93;;;21.70;99.90;;;;;;6285312;22;20015;-80
2023/07/01 19:00:03;;;;;;;16.90;10.43;;;21.60;99.90;;;;;;6236037;22;20027;-78
2023/07/01 19:03:10;;;;;;;12.70;6.57;;;21.70;99.90;;;;;;6157353;23;20056;-81
2023/07/01 19:05:40;;;;;;;11.52;6.90;;;21.70;99.90;;;;;;6158663;23;20084;-79
2023/07/01 19:09:08;;;;;;;11.70;6.75;;;21.60;99.90;;;;;;6136577;23;20026;-79
2023/07/01 19:12:28;;;;;;;13.68;7.43;;;21.90;99.90;;;;;;6143020;23;20014;-75
2023/07/01 19:15:34;;;;;;;141.68;92.60;;;21.80;99.90;;;;;;6131626;23;20029;-77
2023/07/01 19:18:11;;;;;;;75.00;55.53;;;21.70;99.90;;;;;;6128753;23;20448;-77
2023/07/01 19:20:52;;;;;;;16.42;9.95;;;21.60;99.90;;;;;;6107522;23;20056;-76
2023/07/01 19:23:20;;;;;;;11.70;6.93;;;21.50;99.90;;;;;;6154424;23;20022;-79
2023/07/01 19:26:50;;;;;;;11.68;6.63;;;21.40;99.90;;;;;;6137677;23;20029;-81
2023/07/01 19:29:48;;;;;;;13.98;6.57;;;21.40;99.90;;;;;;6139717;23;20017;-79
2023/07/01 19:36:08;;;;;;;10.80;5.95;;;21.10;99.90;;;;;;6218855;23;20017;-77
2023/07/01 19:38:37;;;;;;;10.32;6.25;;;21.10;99.90;;;;;;6195799;23;20390;-81
2023/07/01 19:45:12;;;;;;;13.02;6.18;;;21.20;99.90;;;;;;6217355;23;20024;-79
2023/07/01 19:49:18;;;;;;;15.70;6.13;;;21.20;99.90;;;;;;6204444;23;20035;-80
2023/07/01 19:51:45;;;;;;;11.82;6.22;;;21.30;99.90;;;;;;6194322;23;20370;-80
2023/07/01 19:57:50;;;;;;;14.55;6.63;;;21.30;99.90;;;;;;6249123;23;20012;-77
2023/07/01 20:00:29;;;;;;;12.18;6.68;;;21.50;99.90;;;;;;6248646;23;20028;-80
2023/07/01 20:11:28;;;;;;;15.18;6.40;;;21.20;99.90;;;;;;6242867;22;20350;-79
2023/07/01 20:14:00;;;;;;;11.98;6.10;;;21.20;99.90;;;;;;6225463;23;20020;-79
2023/07/01 20:16:55;;;;;;;12.68;6.30;;;21.20;99.90;;;;;;6251659;23;20016;-79
2023/07/01 20:19:57;;;;;;;13.18;6.45;;;21.20;99.90;;;;;;6220879;23;20016;-80
2023/07/01 20:22:25;;;;;;;11.27;6.30;;;21.10;99.90;;;;;;6222707;23;20473;-77
2023/07/01 20:25:12;;;;;;;12.98;7.07;;;21.10;99.90;;;;;;6252151;23;20040;-82
2023/07/01 20:27:39;;;;;;;13.15;7.63;;;20.90;99.90;;;;;;6250960;22;20023;-78
2023/07/01 20:30:12;;;;;;;16.77;8.35;;;20.90;99.90;;;;;;6283582;22;20065;-80
2023/07/01 20:33:34;;;;;;;22.73;8.35;;;21.10;99.90;;;;;;6204443;22;20012;-81
2023/07/01 20:39:12;;;;;;;23.20;13.70;;;20.80;99.90;;;;;;6281897;22;20012;-78
2023/07/01 20:41:40;;;;;;;19.42;11.77;;;21.00;99.90;;;;;;6284736;22;20085;-81
2023/07/01 20:44:17;;;;;;;23.35;13.70;;;20.90;99.90;;;;;;6254828;22;20034;-79
2023/07/01 20:46:45;;;;;;;22.23;13.68;;;21.00;99.90;;;;;;6228646;22;20023;-77
2023/07/01 20:49:15;;;;;;;22.27;11.77;;;21.10;99.90;;;;;;6252600;22;20015;-79
2023/07/01 20:51:43;;;;;;;22.30;13.70;;;21.10;99.90;;;;;;6280269;22;20092;-77
2023/07/01 20:54:11;;;;;;;16.90;8.40;;;20.90;99.90;;;;;;6278606;22;20015;-78
2023/07/01 20:56:48;;;;;;;15.35;8.07;;;20.70;99.90;;;;;;6256813;22;20434;-82
2023/07/01 20:59:38;;;;;;;16.40;8.57;;;20.70;99.90;;;;;;6259253;22;20334;-82
2023/07/01 21:02:05;;;;;;;14.95;8.35;;;20.80;99.90;;;;;;6287345;22;20514;-79
2023/07/01 21:04:35;;;;;;;19.08;7.65;;;20.80;99.90;;;;;;6258524;22;20015;-78
2023/07/01 21:07:05;;;;;;;22.48;8.23;;;20.90;99.90;;;;;;6280576;22;20077;-77
2023/07/01 21:09:34;;;;;;;21.87;8.17;;;20.90;99.90;;;;;;6286097;22;20437;-79
2023/07/01 21:12:01;;;;;;;15.77;8.38;;;20.90;99.90;;;;;;6257804;22;20023;-80